Time;durP1;ratioP1;P1;durP2;ratioP2;P2;SDS_P1;SDS_P2;PMS_P1;PMS_P2;Temp;Humidity;BMP_temperature;BMP_pressure;BME280_temperature;BME280_humidity;BME280_pressure;Samples;Min_cycle;Max_cycle;Signal;HPM_P1;HPM_P2
2022/09/02 00:01:31;;;;;;;3.03;2.70;;;13.90;66.20;;;14.70;57.74;98164.09;5018852;28;20489;-76
2022/09/02 00:04:04;;;;;;;2.63;2.43;;;13.90;65.90;;;14.63;57.69;98162.56;5035757;28;20521;-73
2022/09/02 00:06:32;;;;;;;3.77;2.00;;;13.90;66.00;;;14.68;57.30;98165.38;5020185;28;20828;-74
2022/09/02 00:09:00;;;;;;;2.43;2.23;;;13.80;66.10;;;14.66;57.63;98162.94;5039339;28;20455;-74
2022/09/02 00:11:31;;;;;;;2.63;2.43;;;13.80;66.10;;;14.68;57.81;98155.34;5021019;28;20562;-72
2022/09/02 00:14:02;;;;;;;4.50;2.57;;;13.80;66.20;;;14.63;57.38;98162.56;5018358;28;20810;-75
2022/09/02 00:16:31;;;;;;;4.53;2.70;;;13.80;66.20;;;14.70;57.24;98153.22;5034914;28;20472;-74
2022/09/02 00:19:02;;;;;;;2.50;2.30;;;13.80;66.30;;;14.77;57.56;98152.28;5020960;28;20504;-75
2022/09/02 00:21:31;;;;;;;3.67;2.80;;;13.80;66.40;;;14.72;57.98;98167.44;5029493;28;21051;-75
2022/09/02 00:23:59;;;;;;;2.73;2.53;;;13.80;66.60;;;14.82;57.65;98160.56;5043244;28;20463;-75
2022/09/02 00:26:26;;;;;;;3.30;2.20;;;13.80;66.80;;;14.87;57.23;98155.22;5045505;28;20456;-73
2022/09/02 00:28:54;;;;;;;2.40;2.20;;;13.80;66.90;;;14.65;57.79;98150.41;5027850;28;20461;-74
2022/09/02 00:31:22;;;;;;;2.60;2.40;;;13.70;66.70;;;14.63;57.79;98152.50;5038635;28;20517;-75
2022/09/02 00:33:50;;;;;;;2.50;2.30;;;13.70;66.80;;;14.45;57.42;98101.84;5018308;28;21245;-73
2022/09/02 00:36:19;;;;;;;2.57;2.43;;;13.70;67.00;;;14.70;57.69;98142.34;5023236;28;20454;-74
2022/09/02 00:38:46;;;;;;;2.80;2.60;;;13.70;67.20;;;14.69;58.02;98135.25;5032986;28;20457;-75
2022/09/02 00:41:14;;;;;;;3.10;2.30;;;13.60;67.50;;;14.64;58.08;98132.44;5048340;28;20462;-74
2022/09/02 00:43:47;;;;;;;2.70;2.50;;;13.60;68.00;;;14.60;58.47;98136.66;5049144;28;20468;-71
2022/09/02 00:46:17;;;;;;;3.13;2.80;;;13.50;68.30;;;14.47;59.21;98134.19;5043594;28;20464;-73
2022/09/02 00:48:49;;;;;;;4.13;2.40;;;13.40;68.60;;;14.48;59.49;98138.56;5020752;28;20450;-75
2022/09/02 00:51:18;;;;;;;2.63;2.43;;;13.30;68.90;;;14.25;59.63;98126.66;5036965;28;20985;-76
2022/09/02 00:53:47;;;;;;;5.30;3.10;;;13.30;69.30;;;14.13;59.94;98127.47;5019825;28;20476;-77
2022/09/02 00:56:20;;;;;;;3.27;2.97;;;13.20;69.60;;;13.98;60.68;98138.00;5038012;28;20562;-71
2022/09/02 00:58:50;;;;;;;3.80;2.50;;;13.10;70.10;;;14.01;60.83;98126.66;5019972;28;20451;-75
2022/09/02 01:01:21;;;;;;;2.97;2.67;;;13.00;71.00;;;13.86;61.01;98117.06;5037370;28;20467;-72
2022/09/02 01:03:49;;;;;;;2.80;2.60;;;12.90;70.80;;;13.96;61.04;98126.53;5036151;28;20483;-74
2022/09/02 01:06:23;;;;;;;5.37;2.90;;;12.90;71.40;;;13.91;61.17;98129.13;5036786;28;20461;-74
2022/09/02 01:08:57;;;;;;;3.07;2.87;;;12.90;72.00;;;14.04;60.96;98126.19;5035743;28;20553;-74
2022/09/02 01:11:31;;;;;;;4.57;2.60;;;12.90;71.90;;;13.78;61.73;98120.16;5035908;28;20546;-72
2022/09/02 01:14:00;;;;;;;3.23;2.93;;;12.80;72.20;;;13.70;61.54;98107.72;5028771;28;20530;-74
2022/09/02 01:16:34;;;;;;;3.20;2.67;;;12.80;72.30;;;13.59;62.25;98094.97;5039872;28;20489;-75
2022/09/02 01:19:08;;;;;;;3.10;2.77;;;12.80;72.60;;;13.79;62.18;98110.94;5045352;28;20494;-73
2022/09/02 01:21:38;;;;;;;4.00;2.70;;;12.80;73.20;;;13.80;61.93;98104.44;5022992;28;20456;-73
2022/09/02 01:24:07;;;;;;;4.53;3.80;;;12.80;73.40;;;13.90;61.88;98116.63;5018676;28;20449;-74
2022/09/02 01:26:34;;;;;;;3.73;3.00;;;12.70;73.70;;;13.88;61.88;98114.97;5034521;28;20449;-73
2022/09/02 01:29:02;;;;;;;6.33;3.13;;;12.70;74.00;;;13.69;62.08;98113.38;5038351;28;20473;-75
2022/09/02 01:31:30;;;;;;;3.30;3.07;;;12.60;74.20;;;13.51;63.40;98119.75;5036936;28;20480;-75
2022/09/02 01:33:58;;;;;;;3.10;2.90;;;12.60;74.70;;;13.32;62.75;98068.19;5045359;28;20603;-73
2022/09/02 01:36:25;;;;;;;4.07;2.67;;;12.50;74.80;;;13.50;63.04;98102.63;5043754;28;20465;-75
2022/09/02 01:38:53;;;;;;;3.70;3.30;;;12.50;75.20;;;13.52;62.66;98089.63;5028136;28;20450;-73
2022/09/02 01:41:21;;;;;;;3.13;2.93;;;12.50;75.40;;;13.37;63.39;98113.63;5031507;28;20471;-73
2022/09/02 01:43:48;;;;;;;4.00;3.37;;;12.50;75.60;;;13.25;63.45;98117.13;5044288;28;20518;-76
2022/09/02 01:46:16;;;;;;;3.43;3.03;;;12.40;75.40;;;13.06;63.96;98094.66;5037450;28;20518;-75
2022/09/02 01:48:43;;;;;;;3.33;3.03;;;12.40;75.70;;;13.38;63.34;98118.00;5042892;28;20453;-74
2022/09/02 01:51:18;;;;;;;3.50;3.20;;;12.40;75.90;;;13.31;63.48;98110.81;5036913;28;20504;-79
2022/09/02 01:53:46;;;;;;;3.20;2.53;;;12.30;76.00;;;13.29;63.62;98115.63;5037033;28;20471;-75
2022/09/02 01:56:13;;;;;;;2.97;2.40;;;12.30;76.30;;;13.24;63.78;98110.06;5040166;28;20876;-75
2022/09/02 01:58:43;;;;;;;4.47;2.90;;;12.20;76.60;;;13.10;64.04;98105.88;5038724;28;20492;-76
2022/09/02 02:01:10;;;;;;;4.23;3.30;;;12.20;76.60;;;13.25;63.86;98114.41;5022086;28;20464;-72
2022/09/02 02:03:38;;;;;;;3.90;3.20;;;12.20;76.80;;;13.13;63.89;98105.44;5021081;28;20515;-74
2022/09/02 02:06:10;;;;;;;3.40;3.13;;;12.20;76.90;;;13.08;64.23;98099.84;5025846;28;20454;-74
2022/09/02 02:08:38;;;;;;;4.03;3.23;;;12.10;77.00;;;13.01;63.82;98089.09;5033438;28;20553;-72
2022/09/02 02:11:06;;;;;;;3.50;3.17;;;12.10;77.10;;;13.03;64.45;98101.38;5018640;28;20457;-76
2022/09/02 02:13:34;;;;;;;3.77;3.47;;;12.10;77.40;;;12.85;65.39;98112.25;5036980;28;20518;-72
2022/09/02 02:16:04;;;;;;;3.27;2.97;;;12.00;77.60;;;13.04;64.63;98100.31;5021561;28;20459;-74
2022/09/02 02:18:31;;;;;;;3.57;3.27;;;12.00;77.60;;;12.95;64.94;98096.25;5048435;28;20476;-76
2022/09/02 02:20:59;;;;;;;3.10;2.80;;;12.00;78.00;;;12.95;64.94;98090.84;5051953;28;20461;-73
2022/09/02 02:23:26;;;;;;;6.43;3.20;;;11.90;78.00;;;12.91;64.88;98086.94;5043062;28;20457;-75
2022/09/02 02:25:54;;;;;;;4.13;3.60;;;11.90;78.80;;;12.88;64.91;98090.09;5041595;28;20457;-74
2022/09/02 02:28:22;;;;;;;3.50;3.20;;;11.90;78.50;;;12.55;65.21;98032.53;5023182;28;20953;-72
2022/09/02 02:30:49;;;;;;;4.13;3.43;;;11.80;78.80;;;12.80;65.58;98098.53;5039344;28;20480;-73
2022/09/02 02:33:18;;;;;;;3.50;2.97;;;11.80;79.00;;;12.77;65.66;98091.72;5032453;28;20473;-72
2022/09/02 02:35:46;;;;;;;3.20;3.00;;;11.70;79.40;;;12.79;65.46;98096.88;5039944;28;20533;-75
2022/09/02 02:38:13;;;;;;;3.10;2.90;;;11.60;79.60;;;12.77;65.60;98093.56;5024456;28;20464;-73
2022/09/02 02:40:40;;;;;;;2.73;2.53;;;11.60;79.60;;;12.72;65.56;98097.81;5040468;28;20468;-76
2022/09/02 02:43:07;;;;;;;5.57;3.40;;;11.60;79.80;;;12.67;66.17;98103.09;5023212;28;20469;-73
2022/09/02 02:45:35;;;;;;;3.10;2.77;;;11.60;80.00;;;12.61;65.99;98095.84;5018259;28;20471;-75
2022/09/02 02:48:03;;;;;;;3.13;2.90;;;11.50;80.30;;;12.62;66.32;98108.34;5022561;28;20449;-76
2022/09/02 02:50:32;;;;;;;3.60;3.10;;;11.50;80.60;;;12.59;66.50;98096.09;5022508;28;21099;-78
2022/09/02 02:53:01;;;;;;;3.83;2.90;;;11.50;80.70;;;12.63;66.26;98098.34;5037348;28;20470;-74
2022/09/02 02:55:28;;;;;;;3.30;3.00;;;11.60;80.60;;;12.55;66.21;98096.78;5043025;28;20491;-77
2022/09/02 02:57:55;;;;;;;3.23;2.90;;;11.50;80.50;;;12.43;66.27;98094.81;5018529;28;20454;-78
2022/09/02 03:00:26;;;;;;;3.20;2.80;;;11.50;80.50;;;12.49;66.61;98094.94;5036944;28;21001;-76
2022/09/02 03:02:56;;;;;;;3.23;3.03;;;11.50;81.00;;;12.39;66.81;98095.47;5019788;28;20465;-75
2022/09/02 03:05:25;;;;;;;4.90;3.10;;;11.50;80.70;;;12.35;66.67;98092.38;5035760;28;20471;-75
2022/09/02 03:07:53;;;;;;;3.40;2.80;;;11.50;80.90;;;12.31;67.01;98085.75;5035801;28;20461;-76
2022/09/02 03:10:22;;;;;;;3.10;2.87;;;11.50;80.80;;;12.35;66.64;98080.72;5039593;28;20464;-74
2022/09/02 03:12:51;;;;;;;3.80;2.67;;;11.60;80.50;;;12.29;66.33;98044.53;5037442;28;21019;-75
2022/09/02 03:15:20;;;;;;;2.60;2.40;;;11.60;80.40;;;12.43;66.21;98083.97;5033885;28;20517;-74
2022/09/02 03:17:48;;;;;;;3.07;2.80;;;11.60;79.90;;;12.61;65.89;98082.31;5038386;28;20461;-76
2022/09/02 03:20:18;;;;;;;3.93;2.90;;;11.70;79.90;;;12.81;65.09;98083.94;5037543;28;21233;-72
2022/09/02 03:22:47;;;;;;;2.77;2.50;;;11.70;80.00;;;12.62;65.38;98081.25;5037880;28;20467;-73
2022/09/02 03:25:20;;;;;;;3.43;2.30;;;11.70;80.00;;;12.64;65.40;98076.41;5041487;28;20535;-76
2022/09/02 03:27:48;;;;;;;3.87;2.57;;;11.80;79.80;;;12.68;65.18;98074.94;5039371;28;20457;-72
2022/09/02 03:30:19;;;;;;;2.97;2.77;;;11.80;79.40;;;12.68;65.06;98065.97;5045740;28;20463;-76
2022/09/02 03:32:47;;;;;;;5.50;2.90;;;11.90;79.20;;;12.74;64.88;98068.59;5052746;28;20532;-74
2022/09/02 03:35:18;;;;;;;3.60;2.60;;;11.90;79.00;;;12.75;64.86;98072.94;5034214;28;20465;-71
2022/09/02 03:37:47;;;;;;;3.00;2.57;;;12.00;78.90;;;12.95;64.37;98069.13;5039014;28;20456;-74
2022/09/02 03:40:19;;;;;;;2.80;2.60;;;12.00;78.90;;;12.68;64.79;98066.78;5032145;28;20477;-74
2022/09/02 03:42:46;;;;;;;2.53;2.33;;;12.00;78.70;;;12.78;64.82;98068.13;5027355;28;20464;-75
2022/09/02 03:45:15;;;;;;;6.13;2.73;;;12.10;79.00;;;13.04;64.17;98062.34;5043790;28;20589;-73
2022/09/02 03:47:49;;;;;;;3.40;2.60;;;12.10;78.80;;;13.01;64.37;98073.66;5038478;28;20978;-76
2022/09/02 03:50:17;;;;;;;2.60;2.40;;;12.00;78.90;;;12.58;64.55;98021.25;5041413;28;20933;-75
2022/09/02 03:52:45;;;;;;;2.90;2.20;;;12.00;79.00;;;12.85;64.72;98064.25;5039070;28;20484;-75
2022/09/02 03:55:12;;;;;;;2.90;2.70;;;12.00;79.10;;;12.94;64.61;98075.63;5037429;28;20852;-76
2022/09/02 03:57:42;;;;;;;2.97;2.67;;;12.00;79.00;;;12.60;65.41;98061.69;5036686;28;20522;-74
2022/09/02 04:00:13;;;;;;;2.80;2.60;;;11.90;78.80;;;12.70;65.48;98067.41;5037809;28;20475;-75
2022/09/02 04:02:40;;;;;;;3.53;2.40;;;11.90;79.10;;;12.77;64.63;98061.03;5019011;28;20451;-75
2022/09/02 04:05:10;;;;;;;2.70;2.50;;;11.90;79.10;;;12.73;65.17;98061.50;5018126;28;22224;-76
2022/09/02 04:07:37;;;;;;;3.10;2.80;;;11.90;79.10;;;12.60;65.47;98058.97;5018843;28;20448;-77
2022/09/02 04:10:07;;;;;;;4.93;2.50;;;11.90;79.00;;;12.61;65.23;98047.06;5033472;28;21743;-74
2022/09/02 04:12:35;;;;;;;2.73;2.53;;;11.90;79.20;;;12.79;65.19;98065.19;5013618;28;21073;-78
2022/09/02 04:15:06;;;;;;;3.63;2.93;;;11.90;79.40;;;12.76;65.17;98065.66;5039596;28;20453;-73
2022/09/02 04:21:18;;;;;;;3.13;2.87;;;11.90;79.30;;;12.70;65.14;98072.81;5046265;28;20467;-77
2022/09/02 04:23:46;;;;;;;3.10;2.80;;;11.80;79.30;;;12.55;65.68;98066.97;5048254;28;20456;-74
2022/09/02 04:26:16;;;;;;;3.10;2.90;;;11.80;79.30;;;12.59;65.29;98070.88;5050854;28;20472;-74
2022/09/02 04:28:44;;;;;;;5.37;2.47;;;11.80;79.40;;;12.64;65.48;98068.28;5038877;28;20438;-75
2022/09/02 04:31:16;;;;;;;3.03;2.73;;;11.80;79.50;;;12.61;65.33;98063.31;5050687;28;20468;-75
2022/09/02 04:33:43;;;;;;;6.00;2.97;;;11.80;79.40;;;12.56;65.61;98071.31;5050361;28;20526;-76
2022/09/02 04:36:15;;;;;;;3.77;2.63;;;11.90;79.30;;;12.23;65.88;97993.97;5026967;28;20945;-77
2022/09/02 04:38:42;;;;;;;6.30;3.43;;;11.90;79.90;;;12.86;67.69;98040.72;5036497;28;20462;-76
2022/09/02 04:41:12;;;;;;;3.60;2.73;;;11.90;82.10;;;13.00;65.77;98060.31;5040694;28;20448;-75
2022/09/02 04:43:41;;;;;;;3.13;2.87;;;12.00;80.70;;;12.50;64.76;98001.75;5040207;28;20517;-77
2022/09/02 04:46:10;;;;;;;2.87;2.67;;;12.10;79.60;;;12.89;64.68;98064.63;5041735;28;20555;-75
2022/09/02 04:48:40;;;;;;;3.57;2.80;;;12.20;79.10;;;13.22;63.88;98073.38;5037390;28;20499;-74
2022/09/02 04:51:11;;;;;;;3.27;2.97;;;12.30;78.70;;;13.24;64.29;98069.34;5050565;28;20542;-77
2022/09/02 04:53:40;;;;;;;8.50;2.60;;;12.40;78.60;;;13.30;63.08;98054.88;5044281;28;20532;-76
2022/09/02 04:56:12;;;;;;;4.40;2.50;;;12.60;77.80;;;13.66;62.41;98073.13;5003682;28;20575;-81
2022/09/02 04:58:43;;;;;;;5.47;2.70;;;12.90;77.40;;;13.82;62.11;98075.16;5024283;28;20469;-80
2022/09/02 05:01:14;;;;;;;4.03;2.90;;;13.10;76.80;;;14.21;60.46;98076.59;5042418;28;20585;-80
2022/09/02 05:03:44;;;;;;;2.43;2.23;;;13.40;76.30;;;14.04;60.87;98069.16;5047385;28;20556;-75
2022/09/02 05:06:16;;;;;;;2.80;2.60;;;13.60;75.60;;;14.29;60.02;98076.19;5045468;28;20519;-79
2022/09/02 05:08:43;;;;;;;3.10;2.90;;;13.80;75.00;;;14.53;59.10;98070.75;5042027;28;20520;-77
2022/09/02 05:11:15;;;;;;;3.20;2.73;;;14.10;74.40;;;14.77;58.63;98084.28;5052659;28;20450;-79
2022/09/02 05:13:44;;;;;;;2.50;2.30;;;14.30;73.90;;;14.81;58.00;98077.31;5057820;28;20469;-79
2022/09/02 05:16:16;;;;;;;3.60;2.60;;;14.50;73.10;;;15.15;57.41;98078.22;5061700;28;20432;-70
2022/09/02 05:18:44;;;;;;;3.90;3.00;;;14.60;72.90;;;14.81;58.15;98083.56;5060385;28;20458;-81
2022/09/02 05:21:11;;;;;;;3.37;3.07;;;14.60;72.50;;;15.19;57.26;98078.56;5060117;28;22079;-73
2022/09/02 05:23:39;;;;;;;3.00;2.43;;;14.80;72.40;;;15.01;57.53;98094.03;5042475;28;20500;-75
2022/09/02 05:26:08;;;;;;;3.53;2.33;;;14.80;71.80;;;15.06;57.74;98076.16;5033064;28;20449;-71
2022/09/02 05:28:35;;;;;;;2.90;2.30;;;14.80;71.80;;;15.28;56.95;98082.56;5052925;28;20444;-86
2022/09/02 05:31:05;;;;;;;4.23;2.60;;;15.00;71.30;;;15.50;55.95;98075.56;5023772;28;20482;-79
2022/09/02 05:33:32;;;;;;;2.83;2.60;;;15.30;70.80;;;14.84;56.73;98017.00;5024100;28;20806;-77
2022/09/02 05:36:03;;;;;;;2.70;2.50;;;15.30;70.30;;;14.25;59.56;98085.91;5042351;28;20577;-82
2022/09/02 05:38:30;;;;;;;10.37;3.80;;;14.40;71.50;;;13.70;61.82;98091.44;5025682;28;20503;-80
2022/09/02 05:40:58;;;;;;;3.77;2.70;;;13.50;73.30;;;13.92;61.16;98092.75;5040029;28;20454;-87
2022/09/02 05:43:26;;;;;;;4.23;2.63;;;13.20;74.50;;;13.86;61.53;98089.91;5037472;28;20523;-86
2022/09/02 05:45:53;;;;;;;2.90;2.70;;;13.10;75.50;;;13.68;62.34;98080.00;5041435;28;20457;-69
2022/09/02 05:51:07;;;;;;;4.20;2.40;;;12.90;75.80;;;13.59;62.83;98084.94;5050138;28;20536;-83
2022/09/02 05:53:34;;;;;;;3.33;3.03;;;12.90;76.30;;;13.82;62.21;98098.78;5051431;28;20523;-82
2022/09/02 05:56:05;;;;;;;2.73;2.53;;;13.00;76.30;;;13.60;61.88;98037.72;5060104;28;20503;-74
2022/09/02 05:58:32;;;;;;;6.40;3.00;;;13.10;76.30;;;13.68;62.83;98090.84;5026645;28;20486;-81
2022/09/02 06:00:59;;;;;;;2.40;2.17;;;13.10;76.10;;;13.73;62.20;98079.31;5041231;28;20457;-76
2022/09/02 06:03:27;;;;;;;6.63;2.50;;;13.20;76.10;;;13.94;62.13;98091.44;5022504;28;21117;-83
2022/09/02 06:05:56;;;;;;;4.50;3.03;;;13.20;76.50;;;14.21;61.15;98088.25;5042249;28;20469;-80
2022/09/02 06:08:25;;;;;;;4.13;2.60;;;13.30;76.20;;;14.11;61.66;98091.59;5028988;28;20449;-74
2022/09/02 06:10:52;;;;;;;4.80;2.43;;;13.40;75.90;;;14.12;61.47;98087.00;5029740;28;20438;-86
2022/09/02 06:13:21;;;;;;;3.70;2.90;;;13.50;75.70;;;14.05;61.96;98087.09;5047321;28;20484;-74
2022/09/02 06:15:49;;;;;;;6.67;3.10;;;13.50;75.90;;;14.13;61.54;98088.63;5035886;28;20453;-84
2022/09/02 06:18:18;;;;;;;2.50;2.30;;;13.50;75.80;;;14.34;61.27;98097.25;5044527;28;20465;-82
2022/09/02 06:20:47;;;;;;;2.40;2.20;;;13.60;75.80;;;13.89;61.85;98072.31;5021937;28;20462;-75
2022/09/02 06:23:16;;;;;;;4.40;2.63;;;13.60;75.50;;;14.12;61.31;98090.50;5028780;28;20457;-80
2022/09/02 06:25:47;;;;;;;3.00;2.80;;;13.60;75.60;;;14.09;61.70;98077.41;5032824;28;20472;-80
2022/09/02 06:28:15;;;;;;;2.73;2.53;;;13.50;75.60;;;14.51;60.67;98089.19;5036370;28;20460;-70
2022/09/02 06:30:45;;;;;;;3.20;2.93;;;13.70;75.50;;;14.47;60.48;98093.44;5038635;28;20476;-76
2022/09/02 06:33:12;;;;;;;2.80;2.50;;;13.80;75.30;;;14.09;60.84;98071.97;5036153;28;20531;-77
2022/09/02 06:35:44;;;;;;;2.43;2.30;;;13.80;75.00;;;14.45;60.78;98086.34;5040855;28;20522;-76
2022/09/02 06:38:13;;;;;;;2.67;2.47;;;13.80;75.30;;;14.55;60.32;98093.06;5035031;28;20464;-87
2022/09/02 06:40:49;;;;;;;2.80;2.60;;;13.80;75.10;;;14.65;60.18;98085.13;5025650;28;20486;-75
2022/09/02 06:43:17;;;;;;;2.83;2.47;;;14.00;74.90;;;14.85;59.58;98081.19;5041084;28;20479;-85
2022/09/02 06:45:45;;;;;;;2.70;2.50;;;14.10;75.00;;;14.82;59.56;98084.41;5048131;28;20487;-75
2022/09/02 06:48:13;;;;;;;3.20;2.17;;;14.20;74.70;;;14.78;59.80;98088.66;5033879;28;20460;-79
2022/09/02 06:50:44;;;;;;;2.53;2.33;;;14.20;74.40;;;14.91;59.51;98093.81;5036673;28;20519;-76
2022/09/02 06:53:12;;;;;;;2.53;2.33;;;14.20;74.50;;;15.23;59.40;98087.06;5028423;28;20465;-82
2022/09/02 06:55:43;;;;;;;3.00;2.60;;;14.40;74.70;;;15.53;58.34;98086.78;5043088;28;20974;-85
2022/09/02 06:58:13;;;;;;;3.33;3.00;;;14.60;74.80;;;15.29;58.23;98086.94;5035941;28;20469;-76
2022/09/02 07:00:42;;;;;;;2.37;2.17;;;14.70;73.80;;;15.28;58.24;98090.72;5036199;28;20464;-72
2022/09/02 07:06:08;;;;;;;2.90;2.57;;;14.70;73.70;;;15.60;58.13;98094.78;5040237;28;20501;-86
2022/09/02 07:08:37;;;;;;;3.20;2.17;;;14.90;73.70;;;15.64;57.78;98081.50;5037712;28;20516;-81
2022/09/02 07:11:05;;;;;;;4.20;2.63;;;15.00;73.80;;;15.73;57.54;98094.47;5035992;28;20904;-89
2022/09/02 07:13:35;;;;;;;3.57;2.70;;;15.10;73.40;;;15.73;57.32;98089.03;5037462;28;20499;-79
2022/09/02 07:16:03;;;;;;;4.10;2.60;;;15.10;73.20;;;15.93;57.21;98086.91;5032193;28;20475;-86
2022/09/02 07:18:30;;;;;;;2.83;2.27;;;15.20;73.00;;;16.14;56.66;98091.59;5038998;28;20559;-85
2022/09/02 07:20:58;;;;;;;2.93;2.50;;;15.30;73.00;;;16.26;56.26;98079.75;5039710;28;20508;-81
2022/09/02 07:23:26;;;;;;;2.33;2.13;;;15.50;72.80;;;16.40;55.97;98086.50;5032155;28;20448;-78
2022/09/02 07:25:54;;;;;;;2.20;2.00;;;15.60;72.60;;;16.74;55.20;98084.72;5062128;28;20450;-72
2022/09/02 07:28:22;;;;;;;2.80;2.47;;;15.70;72.40;;;16.89;54.64;98073.19;5061601;28;20493;-71
2022/09/02 07:30:53;;;;;;;2.17;2.03;;;15.90;72.10;;;17.05;54.06;98075.03;5042325;28;20539;-73
2022/09/02 07:33:21;;;;;;;2.30;1.80;;;16.10;71.50;;;16.68;54.02;98034.75;5061348;28;20466;-73
2022/09/02 07:35:50;;;;;;;2.53;2.37;;;16.20;70.90;;;16.99;53.99;98079.63;5060816;28;20452;-72
2022/09/02 07:38:18;;;;;;;5.60;2.73;;;16.20;70.90;;;16.87;53.83;98084.34;5041985;28;20448;-79
2022/09/02 07:40:47;;;;;;;7.17;2.20;;;16.30;70.20;;;16.96;53.85;98076.53;5044193;28;20452;-72
2022/09/02 07:43:14;;;;;;;4.70;2.83;;;16.20;70.30;;;17.11;53.42;98084.09;5058560;28;20525;-86
2022/09/02 07:45:43;;;;;;;4.30;2.97;;;16.30;69.80;;;17.17;53.29;98087.72;5059912;28;20430;-73
2022/09/02 07:48:11;;;;;;;5.93;2.47;;;16.40;69.70;;;17.26;53.45;98076.06;5055958;28;20469;-75
2022/09/02 07:50:39;;;;;;;3.93;2.63;;;16.40;69.90;;;17.68;52.99;98079.19;5026250;28;20457;-81
2022/09/02 07:53:06;;;;;;;5.20;2.77;;;16.60;70.50;;;17.80;52.29;98079.81;5015229;28;20881;-84
2022/09/02 07:55:35;;;;;;;3.17;2.60;;;16.80;69.50;;;17.40;52.56;98078.41;5043601;28;20527;-86
2022/09/02 07:58:03;;;;;;;3.83;2.50;;;16.80;68.90;;;17.34;52.95;98073.94;5038505;28;20507;-88
2022/09/02 08:00:34;;;;;;;3.13;2.13;;;16.70;68.90;;;17.49;52.53;98074.09;5046312;28;20470;-74
2022/09/02 08:03:01;;;;;;;2.10;2.00;;;16.70;69.20;;;16.99;52.42;98016.03;5045783;28;20448;-88
2022/09/02 08:05:31;;;;;;;10.70;2.40;;;16.80;68.40;;;17.55;52.50;98078.53;5034952;28;20486;-77
2022/09/02 08:07:59;;;;;;;3.53;1.93;;;16.90;68.50;;;17.41;52.00;98006.31;5035824;28;20846;-83
2022/09/02 08:10:29;;;;;;;2.60;2.00;;;17.00;68.60;;;18.20;51.26;98082.31;5051793;28;20450;-82
2022/09/02 08:12:59;;;;;;;2.90;2.37;;;17.20;68.50;;;18.16;50.95;98076.53;5041998;28;20467;-71
2022/09/02 08:15:28;;;;;;;2.93;2.23;;;17.30;67.80;;;18.25;50.82;98074.13;5063340;28;20546;-70
2022/09/02 08:17:57;;;;;;;2.10;1.87;;;17.40;67.50;;;18.43;50.63;98072.88;5061469;28;20591;-73
2022/09/02 08:20:24;;;;;;;4.20;2.03;;;17.50;67.70;;;18.01;50.91;98019.84;5058577;28;20460;-76
2022/09/02 08:22:53;;;;;;;1.90;1.80;;;17.50;67.60;;;18.47;50.49;98075.91;5025525;28;20501;-82
2022/09/02 08:25:20;;;;;;;2.07;1.73;;;17.60;67.20;;;18.59;50.32;98081.16;5020154;28;20541;-73
2022/09/02 08:27:48;;;;;;;2.47;2.00;;;17.70;67.20;;;18.86;49.94;98089.19;5047807;28;20465;-78
2022/09/02 08:30:15;;;;;;;2.90;2.30;;;17.80;67.20;;;18.66;49.75;98024.28;5042959;28;20556;-73
2022/09/02 08:32:43;;;;;;;5.10;1.93;;;18.00;66.90;;;18.81;49.12;98080.97;5046713;28;21006;-78
2022/09/02 08:35:10;;;;;;;3.07;1.83;;;18.00;65.80;;;18.96;48.97;98086.50;5049070;28;20483;-85
2022/09/02 08:37:38;;;;;;;1.87;1.77;;;18.10;65.70;;;19.13;48.23;98071.78;5045975;28;21052;-87
2022/09/02 08:40:13;;;;;;;2.00;1.87;;;18.20;65.20;;;19.14;48.48;98024.16;5048389;28;20568;-88
2022/09/02 08:42:46;;;;;;;3.20;2.07;;;18.40;66.00;;;19.54;47.39;98063.63;5041548;28;20539;-83
2022/09/02 08:45:22;;;;;;;1.90;1.80;;;18.50;64.60;;;19.58;46.62;98054.88;5045527;28;21673;-82
2022/09/02 08:48:04;;;;;;;1.90;1.80;;;18.70;64.00;;;19.44;46.26;98055.41;5041309;28;20827;-79
2022/09/02 08:50:33;;;;;;;2.17;1.33;;;18.50;63.00;;;19.23;46.56;98058.13;5044567;28;20496;-84
2022/09/02 08:53:08;;;;;;;2.50;1.90;;;18.50;62.40;;;19.70;46.01;98054.59;5037024;28;20558;-77
2022/09/02 08:55:47;;;;;;;2.63;1.70;;;18.50;63.00;;;19.96;45.92;98049.94;5043995;28;20553;-84
2022/09/02 08:58:21;;;;;;;1.77;1.67;;;18.80;62.70;;;19.43;45.57;97988.00;5032544;28;20460;-84
2022/09/02 09:00:55;;;;;;;2.20;2.00;;;18.90;61.90;;;19.67;45.26;98001.16;5053912;28;20525;-75
2022/09/02 09:03:28;;;;;;;1.90;1.80;;;18.90;61.70;;;19.79;44.81;97993.47;5047029;28;20445;-79
2022/09/02 09:06:05;;;;;;;3.83;2.23;;;19.10;61.80;;;20.11;45.04;98051.84;5047012;28;20462;-83
2022/09/02 09:08:40;;;;;;;1.57;1.47;;;19.10;61.30;;;20.05;45.01;98042.78;5027000;28;20960;-81
2022/09/02 09:11:20;;;;;;;1.73;1.63;;;19.10;61.10;;;20.09;44.92;98048.56;5044732;28;20502;-87
2022/09/02 09:14:12;;;;;;;4.90;1.63;;;19.20;60.90;;;20.01;43.57;98044.44;5042349;28;21182;-86
2022/09/02 09:16:45;;;;;;;3.03;1.80;;;19.20;59.10;;;19.97;43.02;98046.13;5035124;28;20523;-85
2022/09/02 09:19:15;;;;;;;2.20;1.83;;;19.30;58.40;;;20.36;42.54;98039.97;5036680;28;20453;-89
2022/09/02 09:21:44;;;;;;;1.80;1.70;;;19.30;58.60;;;20.31;42.35;98045.47;5021528;28;20645;-84
2022/09/02 09:24:25;;;;;;;2.13;1.80;;;19.40;58.20;;;20.14;43.42;98040.31;5021870;28;20454;-85
2022/09/02 09:26:55;;;;;;;3.53;2.03;;;19.30;58.60;;;20.21;43.44;98034.53;5037314;28;20492;-83
2022/09/02 09:29:22;;;;;;;2.23;2.03;;;19.30;58.50;;;20.15;43.14;97986.28;5016932;28;20461;-81
2022/09/02 09:31:56;;;;;;;1.70;1.30;;;19.40;58.90;;;20.23;43.55;98030.41;5024695;28;20536;-81
2022/09/02 09:34:26;;;;;;;1.70;1.60;;;19.20;58.50;;;20.21;42.95;98031.78;5050963;28;20506;-80
2022/09/02 09:36:54;;;;;;;2.43;1.60;;;19.20;58.00;;;20.31;40.93;98028.19;5058090;28;20517;-74
2022/09/02 09:39:28;;;;;;;1.50;1.40;;;19.30;56.50;;;19.83;41.63;97974.53;5042747;28;20457;-71
2022/09/02 09:42:00;;;;;;;2.33;1.40;;;19.40;56.20;;;19.82;40.69;97954.53;5054228;28;20459;-71
2022/09/02 09:44:45;;;;;;;3.60;1.50;;;19.50;55.70;;;20.30;40.83;98027.38;5057593;28;20465;-73
2022/09/02 09:47:19;;;;;;;2.87;1.80;;;19.50;55.40;;;20.64;40.46;98025.88;5037280;28;20466;-79
2022/09/02 09:49:52;;;;;;;1.20;1.10;;;19.60;55.50;;;20.86;39.71;98014.56;5033553;28;20458;-83
2022/09/02 09:52:24;;;;;;;1.90;1.53;;;19.80;54.90;;;20.53;40.08;98014.13;5019188;28;20456;-82
2022/09/02 09:55:13;;;;;;;1.60;1.50;;;19.80;54.70;;;20.37;40.26;98011.44;5036680;28;20531;-81
2022/09/02 09:57:44;;;;;;;3.07;1.00;;;19.60;54.70;;;20.44;40.08;98013.06;5026169;28;20470;-77
2022/09/02 10:00:20;;;;;;;2.10;1.50;;;19.60;54.60;;;20.65;40.41;98009.13;5033613;28;20508;-84
2022/09/02 10:02:51;;;;;;;1.60;1.50;;;19.60;55.00;;;20.98;39.28;97992.22;5035580;28;21712;-81
2022/09/02 10:05:30;;;;;;;5.57;1.40;;;20.00;54.70;;;20.61;39.34;97931.22;5026463;28;20538;-78
2022/09/02 10:08:01;;;;;;;1.50;1.40;;;20.00;54.30;;;21.25;38.09;97995.63;5034542;28;20450;-85
2022/09/02 10:10:31;;;;;;;1.83;1.23;;;20.20;53.60;;;21.51;38.00;97994.31;5036465;28;20849;-82
2022/09/02 10:13:18;;;;;;;4.00;1.40;;;20.30;53.60;;;21.26;36.64;97991.75;5035231;28;20534;-73
2022/09/02 10:16:06;;;;;;;1.37;1.10;;;20.40;51.60;;;21.29;36.22;97939.81;5033994;28;21054;-80
2022/09/02 10:18:41;;;;;;;2.20;1.10;;;20.60;51.50;;;20.77;36.40;97931.13;5025670;28;20870;-83
2022/09/02 10:21:24;;;;;;;1.77;1.67;;;20.40;51.00;;;21.29;36.22;97996.69;5024804;28;20457;-79
2022/09/02 10:23:59;;;;;;;1.50;1.40;;;20.30;51.00;;;21.10;37.10;97975.41;5031845;28;20976;-80
2022/09/02 10:26:37;;;;;;;1.47;1.30;;;20.30;51.40;;;21.18;37.55;97985.78;5044826;28;20552;-82
2022/09/02 10:29:39;;;;;;;2.13;1.70;;;20.20;51.60;;;21.49;37.30;97988.28;5038578;28;20459;-79
2022/09/02 10:32:25;;;;;;;3.10;1.20;;;20.40;51.60;;;21.79;37.22;97983.63;5039989;28;20527;-78
2022/09/02 10:35:07;;;;;;;1.83;1.47;;;20.60;52.10;;;21.81;36.39;97974.28;5042846;28;20476;-87
2022/09/02 10:37:45;;;;;;;2.30;1.70;;;20.80;51.30;;;20.82;37.32;97911.88;5034433;28;20552;-82
2022/09/02 10:40:15;;;;;;;2.30;1.50;;;20.60;51.00;;;21.39;36.60;97987.56;5028414;28;20457;-83
2022/09/02 10:42:58;;;;;;;1.50;1.40;;;20.50;50.90;;;21.60;36.67;97979.94;5044223;28;20460;-79